sensor_id;sensor_type;location;lat;lon;timestamp;temperature;humidity
43185;DHT22;28803;52.308;19.096;2024-02-14T00:01:13;1.50;1.00
43185;DHT22;28803;52.308;19.096;2024-02-14T00:03:40;1.50;1.00
43185;DHT22;28803;52.308;19.096;2024-02-14T00:06:08;1.60;1.00
43185;DHT22;28803;52.308;19.096;2024-02-14T00:08:36;1.50;1.00
43185;DHT22;28803;52.308;19.096;2024-02-14T00:11:05;1.50;1.00
43185;DHT22;28803;52.308;19.096;2024-02-14T00:13:32;1.50;1.00
43185;DHT22;28803;52.308;19.096;2024-02-14T00:16:02;1.50;1.00
43185;DHT22;28803;52.308;19.096;2024-02-14T00:18:29;1.50;1.00
43185;DHT22;28803;52.308;19.096;2024-02-14T00:20:57;1.50;1.00
43185;DHT22;28803;52.308;19.096;2024-02-14T00:23:25;1.40;1.00
43185;DHT22;28803;52.308;19.096;2024-02-14T00:28:20;1.40;1.00
43185;DHT22;28803;52.308;19.096;2024-02-14T00:30:47;1.30;1.00
43185;DHT22;28803;52.308;19.096;2024-02-14T00:33:14;1.20;1.00
43185;DHT22;28803;52.308;19.096;2024-02-14T00:35:41;1.20;1.00
43185;DHT22;28803;52.308;19.096;2024-02-14T00:38:09;1.20;1.00
43185;DHT22;28803;52.308;19.096;2024-02-14T00:40:36;1.20;1.00
43185;DHT22;28803;52.308;19.096;2024-02-14T00:43:04;1.10;1.00
43185;DHT22;28803;52.308;19.096;2024-02-14T00:45:31;1.10;1.00
43185;DHT22;28803;52.308;19.096;2024-02-14T00:47:58;1.00;1.00
43185;DHT22;28803;52.308;19.096;2024-02-14T00:50:25;1.00;1.00
43185;DHT22;28803;52.308;19.096;2024-02-14T00:52:53;1.00;1.00
43185;DHT22;28803;52.308;19.096;2024-02-14T00:55:20;0.90;1.00
43185;DHT22;28803;52.308;19.096;2024-02-14T00:57:47;0.80;1.00
43185;DHT22;28803;52.308;19.096;2024-02-14T01:00:14;0.80;1.00
43185;DHT22;28803;52.308;19.096;2024-02-14T01:02:44;0.70;1.00
43185;DHT22;28803;52.308;19.096;2024-02-14T01:05:11;0.70;1.00
43185;DHT22;28803;52.308;19.096;2024-02-14T01:07:39;0.70;1.00
43185;DHT22;28803;52.308;19.096;2024-02-14T01:10:06;0.70;1.00
43185;DHT22;28803;52.308;19.096;2024-02-14T01:12:33;0.60;1.00
43185;DHT22;28803;52.308;19.096;2024-02-14T01:15:01;0.60;1.00
43185;DHT22;28803;52.308;19.096;2024-02-14T01:17:29;0.50;1.00
43185;DHT22;28803;52.308;19.096;2024-02-14T01:19:56;0.50;1.00
43185;DHT22;28803;52.308;19.096;2024-02-14T01:22:24;0.40;1.00
43185;DHT22;28803;52.308;19.096;2024-02-14T01:24:51;0.30;1.00
43185;DHT22;28803;52.308;19.096;2024-02-14T01:27:18;0.30;1.00
43185;DHT22;28803;52.308;19.096;2024-02-14T01:29:45;0.20;1.00
43185;DHT22;28803;52.308;19.096;2024-02-14T01:32:13;0.20;1.00
43185;DHT22;28803;52.308;19.096;2024-02-14T01:34:40;0.10;1.00
43185;DHT22;28803;52.308;19.096;2024-02-14T01:37:09;0.00;1.00
43185;DHT22;28803;52.308;19.096;2024-02-14T01:39:37;0.00;1.00
43185;DHT22;28803;52.308;19.096;2024-02-14T01:42:04;0.00;1.00
43185;DHT22;28803;52.308;19.096;2024-02-14T01:44:34;0.00;12.30
43185;DHT22;28803;52.308;19.096;2024-02-14T01:47:02;0.00;1.00
43185;DHT22;28803;52.308;19.096;2024-02-14T01:49:29;0.00;1.00
43185;DHT22;28803;52.308;19.096;2024-02-14T01:51:59;0.10;1.00
43185;DHT22;28803;52.308;19.096;2024-02-14T01:54:28;0.00;1.00
43185;DHT22;28803;52.308;19.096;2024-02-14T01:56:56;0.00;1.00
43185;DHT22;28803;52.308;19.096;2024-02-14T01:59:26;0.00;1.00
43185;DHT22;28803;52.308;19.096;2024-02-14T02:01:54;0.00;1.00
43185;DHT22;28803;52.308;19.096;2024-02-14T02:04:21;-0.10;1.00
43185;DHT22;28803;52.308;19.096;2024-02-14T02:06:48;0.00;1.00
43185;DHT22;28803;52.308;19.096;2024-02-14T02:09:16;-0.10;1.00
43185;DHT22;28803;52.308;19.096;2024-02-14T02:11:51;-0.10;1.00
43185;DHT22;28803;52.308;19.096;2024-02-14T02:14:21;-0.20;1.00
43185;DHT22;28803;52.308;19.096;2024-02-14T02:16:48;-0.20;1.00
43185;DHT22;28803;52.308;19.096;2024-02-14T02:19:19;-0.20;1.00
43185;DHT22;28803;52.308;19.096;2024-02-14T02:21:47;-0.20;1.00
43185;DHT22;28803;52.308;19.096;2024-02-14T02:24:14;-0.20;1.00
43185;DHT22;28803;52.308;19.096;2024-02-14T02:26:42;-0.20;1.00
43185;DHT22;28803;52.308;19.096;2024-02-14T02:29:10;-0.20;1.00
43185;DHT22;28803;52.308;19.096;2024-02-14T02:31:38;-0.30;1.00
43185;DHT22;28803;52.308;19.096;2024-02-14T02:34:05;-0.30;1.00
43185;DHT22;28803;52.308;19.096;2024-02-14T02:36:33;-0.30;1.00
43185;DHT22;28803;52.308;19.096;2024-02-14T02:39:01;-0.30;1.00
43185;DHT22;28803;52.308;19.096;2024-02-14T02:41:29;-0.30;1.00
43185;DHT22;28803;52.308;19.096;2024-02-14T02:43:56;-0.30;1.00
43185;DHT22;28803;52.308;19.096;2024-02-14T02:46:23;-0.20;1.00
43185;DHT22;28803;52.308;19.096;2024-02-14T02:48:52;-0.20;1.00
43185;DHT22;28803;52.308;19.096;2024-02-14T02:51:22;-0.20;1.00
43185;DHT22;28803;52.308;19.096;2024-02-14T02:53:49;-0.20;1.00
43185;DHT22;28803;52.308;19.096;2024-02-14T02:56:16;-0.20;1.00
43185;DHT22;28803;52.308;19.096;2024-02-14T02:58:44;-0.20;1.00
43185;DHT22;28803;52.308;19.096;2024-02-14T03:01:11;-0.10;1.00
43185;DHT22;28803;52.308;19.096;2024-02-14T03:03:41;-0.10;5.80
43185;DHT22;28803;52.308;19.096;2024-02-14T03:06:09;-0.10;10.60
43185;DHT22;28803;52.308;19.096;2024-02-14T03:08:39;0.00;3.10
43185;DHT22;28803;52.308;19.096;2024-02-14T03:11:07;0.10;1.00
43185;DHT22;28803;52.308;19.096;2024-02-14T03:13:34;0.10;4.40
43185;DHT22;28803;52.308;19.096;2024-02-14T03:16:03;0.20;10.40
43185;DHT22;28803;52.308;19.096;2024-02-14T03:18:31;0.30;6.40
43185;DHT22;28803;52.308;19.096;2024-02-14T03:20:59;0.30;7.50
43185;DHT22;28803;52.308;19.096;2024-02-14T03:23:26;0.30;9.10
43185;DHT22;28803;52.308;19.096;2024-02-14T03:25:55;0.30;9.80
43185;DHT22;28803;52.308;19.096;2024-02-14T03:28:22;0.20;10.00
43185;DHT22;28803;52.308;19.096;2024-02-14T03:30:49;0.20;10.20
43185;DHT22;28803;52.308;19.096;2024-02-14T03:33:16;0.20;7.80
43185;DHT22;28803;52.308;19.096;2024-02-14T03:35:44;0.20;4.70
43185;DHT22;28803;52.308;19.096;2024-02-14T03:38:12;0.10;2.20
43185;DHT22;28803;52.308;19.096;2024-02-14T03:40:41;0.10;2.10
43185;DHT22;28803;52.308;19.096;2024-02-14T03:43:09;0.00;1.00
43185;DHT22;28803;52.308;19.096;2024-02-14T03:45:39;0.00;1.00
43185;DHT22;28803;52.308;19.096;2024-02-14T03:48:06;-0.10;1.00
43185;DHT22;28803;52.308;19.096;2024-02-14T03:50:34;-0.20;1.00
43185;DHT22;28803;52.308;19.096;2024-02-14T03:53:01;-0.20;1.00
43185;DHT22;28803;52.308;19.096;2024-02-14T03:55:30;-0.20;1.00
43185;DHT22;28803;52.308;19.096;2024-02-14T03:57:58;-0.30;1.00
43185;DHT22;28803;52.308;19.096;2024-02-14T04:00:25;-0.30;1.00
43185;DHT22;28803;52.308;19.096;2024-02-14T04:02:52;-0.30;1.00
43185;DHT22;28803;52.308;19.096;2024-02-14T04:05:21;-0.30;1.00
43185;DHT22;28803;52.308;19.096;2024-02-14T04:07:48;-0.40;1.00
43185;DHT22;28803;52.308;19.096;2024-02-14T04:10:19;-0.40;1.00
43185;DHT22;28803;52.308;19.096;2024-02-14T04:12:47;-0.40;1.00
43185;DHT22;28803;52.308;19.096;2024-02-14T04:15:14;-0.40;54.40
43185;DHT22;28803;52.308;19.096;2024-02-14T04:17:41;-0.40;1.00
43185;DHT22;28803;52.308;19.096;2024-02-14T04:20:09;-0.50;1.00
43185;DHT22;28803;52.308;19.096;2024-02-14T04:22:36;-0.60;18.20
43185;DHT22;28803;52.308;19.096;2024-02-14T04:25:04;-0.60;1.00
43185;DHT22;28803;52.308;19.096;2024-02-14T04:27:31;-0.70;1.00
43185;DHT22;28803;52.308;19.096;2024-02-14T04:30:00;-0.70;1.00
43185;DHT22;28803;52.308;19.096;2024-02-14T04:32:28;-0.70;10.30
43185;DHT22;28803;52.308;19.096;2024-02-14T04:34:55;-0.60;8.00
43185;DHT22;28803;52.308;19.096;2024-02-14T04:37:23;-0.60;10.80
43185;DHT22;28803;52.308;19.096;2024-02-14T04:39:51;-0.60;27.20
43185;DHT22;28803;52.308;19.096;2024-02-14T04:42:18;-0.50;18.70
43185;DHT22;28803;52.308;19.096;2024-02-14T04:44:45;-0.20;9.10
43185;DHT22;28803;52.308;19.096;2024-02-14T04:47:12;-0.50;7.00
43185;DHT22;28803;52.308;19.096;2024-02-14T04:49:40;-0.50;9.30
43185;DHT22;28803;52.308;19.096;2024-02-14T04:52:07;-0.50;7.00
43185;DHT22;28803;52.308;19.096;2024-02-14T04:54:35;-0.50;9.60
43185;DHT22;28803;52.308;19.096;2024-02-14T04:57:02;-0.50;10.20
43185;DHT22;28803;52.308;19.096;2024-02-14T04:59:31;-0.50;26.10
43185;DHT22;28803;52.308;19.096;2024-02-14T05:01:59;-0.50;23.20
43185;DHT22;28803;52.308;19.096;2024-02-14T05:04:26;-0.50;30.30
43185;DHT22;28803;52.308;19.096;2024-02-14T05:06:54;-0.50;58.90
43185;DHT22;28803;52.308;19.096;2024-02-14T05:09:26;-0.40;39.40
43185;DHT22;28803;52.308;19.096;2024-02-14T05:11:53;-0.40;67.10
43185;DHT22;28803;52.308;19.096;2024-02-14T05:14:21;-0.50;44.00
43185;DHT22;28803;52.308;19.096;2024-02-14T05:16:48;-0.60;32.90
43185;DHT22;28803;52.308;19.096;2024-02-14T05:19:15;-0.60;29.80
43185;DHT22;28803;52.308;19.096;2024-02-14T05:21:43;-0.60;17.90
43185;DHT22;28803;52.308;19.096;2024-02-14T05:24:10;-0.70;9.40
43185;DHT22;28803;52.308;19.096;2024-02-14T05:26:37;-0.70;7.50
43185;DHT22;28803;52.308;19.096;2024-02-14T05:29:04;-0.70;7.40
43185;DHT22;28803;52.308;19.096;2024-02-14T05:31:45;-0.70;8.80
43185;DHT22;28803;52.308;19.096;2024-02-14T05:34:13;-0.80;11.50
43185;DHT22;28803;52.308;19.096;2024-02-14T05:36:40;-0.80;9.50
43185;DHT22;28803;52.308;19.096;2024-02-14T05:39:09;-0.80;12.10
43185;DHT22;28803;52.308;19.096;2024-02-14T05:41:37;-0.80;11.00
43185;DHT22;28803;52.308;19.096;2024-02-14T05:44:04;-0.80;13.80
43185;DHT22;28803;52.308;19.096;2024-02-14T05:46:31;-0.80;16.30
43185;DHT22;28803;52.308;19.096;2024-02-14T05:48:59;-0.80;17.40
43185;DHT22;28803;52.308;19.096;2024-02-14T05:51:26;-0.80;22.30
43185;DHT22;28803;52.308;19.096;2024-02-14T05:53:54;-0.80;18.80
43185;DHT22;28803;52.308;19.096;2024-02-14T05:56:21;-0.80;20.00
43185;DHT22;28803;52.308;19.096;2024-02-14T05:58:48;-0.80;26.80
43185;DHT22;28803;52.308;19.096;2024-02-14T06:01:16;-0.80;38.00
43185;DHT22;28803;52.308;19.096;2024-02-14T06:03:43;-0.80;42.90
43185;DHT22;28803;52.308;19.096;2024-02-14T06:06:11;-0.70;46.60
43185;DHT22;28803;52.308;19.096;2024-02-14T06:08:39;-0.90;47.40
43185;DHT22;28803;52.308;19.096;2024-02-14T06:11:06;-0.90;54.70
43185;DHT22;28803;52.308;19.096;2024-02-14T06:13:34;-0.80;59.70
43185;DHT22;28803;52.308;19.096;2024-02-14T06:16:03;-0.80;67.10
43185;DHT22;28803;52.308;19.096;2024-02-14T06:18:31;-0.80;74.80
43185;DHT22;28803;52.308;19.096;2024-02-14T06:20:58;-0.70;87.40
43185;DHT22;28803;52.308;19.096;2024-02-14T06:23:26;-0.70;92.70
43185;DHT22;28803;52.308;19.096;2024-02-14T06:25:53;-0.70;97.90
43185;DHT22;28803;52.308;19.096;2024-02-14T06:28:21;-0.60;99.90
43185;DHT22;28803;52.308;19.096;2024-02-14T06:30:48;-0.60;99.90
43185;DHT22;28803;52.308;19.096;2024-02-14T06:33:16;-0.60;99.90
43185;DHT22;28803;52.308;19.096;2024-02-14T06:35:44;-0.50;99.90
43185;DHT22;28803;52.308;19.096;2024-02-14T06:38:12;-0.50;99.90
43185;DHT22;28803;52.308;19.096;2024-02-14T06:40:39;-0.40;99.90
43185;DHT22;28803;52.308;19.096;2024-02-14T06:43:07;-0.40;99.90
43185;DHT22;28803;52.308;19.096;2024-02-14T06:45:35;-0.20;99.90
43185;DHT22;28803;52.308;19.096;2024-02-14T06:48:02;-0.20;99.90
43185;DHT22;28803;52.308;19.096;2024-02-14T06:50:30;-0.10;99.90
43185;DHT22;28803;52.308;19.096;2024-02-14T06:52:59;0.00;99.90
43185;DHT22;28803;52.308;19.096;2024-02-14T06:55:28;0.10;99.90
43185;DHT22;28803;52.308;19.096;2024-02-14T06:57:59;0.20;99.90
43185;DHT22;28803;52.308;19.096;2024-02-14T07:00:26;0.40;99.90
43185;DHT22;28803;52.308;19.096;2024-02-14T07:02:56;0.50;99.90
43185;DHT22;28803;52.308;19.096;2024-02-14T07:05:23;0.60;99.90
43185;DHT22;28803;52.308;19.096;2024-02-14T07:07:51;0.70;99.90
43185;DHT22;28803;52.308;19.096;2024-02-14T07:10:18;0.80;99.90
43185;DHT22;28803;52.308;19.096;2024-02-14T07:12:46;0.80;99.90
43185;DHT22;28803;52.308;19.096;2024-02-14T07:15:13;0.90;99.90
43185;DHT22;28803;52.308;19.096;2024-02-14T07:17:41;0.90;99.90
43185;DHT22;28803;52.308;19.096;2024-02-14T07:20:08;0.90;99.90
43185;DHT22;28803;52.308;19.096;2024-02-14T07:22:36;0.90;99.90
43185;DHT22;28803;52.308;19.096;2024-02-14T07:25:03;1.00;99.90
43185;DHT22;28803;52.308;19.096;2024-02-14T07:27:32;1.00;99.90
43185;DHT22;28803;52.308;19.096;2024-02-14T07:29:59;1.10;99.90
43185;DHT22;28803;52.308;19.096;2024-02-14T07:32:27;1.20;99.90
43185;DHT22;28803;52.308;19.096;2024-02-14T07:34:55;1.30;99.90
43185;DHT22;28803;52.308;19.096;2024-02-14T07:37:22;1.30;99.90
43185;DHT22;28803;52.308;19.096;2024-02-14T07:39:50;1.40;99.90
43185;DHT22;28803;52.308;19.096;2024-02-14T07:42:17;1.50;99.90
43185;DHT22;28803;52.308;19.096;2024-02-14T07:44:44;1.60;99.90
43185;DHT22;28803;52.308;19.096;2024-02-14T07:47:12;1.80;99.90
43185;DHT22;28803;52.308;19.096;2024-02-14T07:49:40;2.00;99.90
43185;DHT22;28803;52.308;19.096;2024-02-14T07:52:08;2.20;99.90
43185;DHT22;28803;52.308;19.096;2024-02-14T07:54:35;2.30;99.90
43185;DHT22;28803;52.308;19.096;2024-02-14T07:57:06;2.60;99.90
43185;DHT22;28803;52.308;19.096;2024-02-14T07:59:33;2.80;99.90
43185;DHT22;28803;52.308;19.096;2024-02-14T08:02:01;3.00;99.90
43185;DHT22;28803;52.308;19.096;2024-02-14T08:04:29;3.20;99.90
43185;DHT22;28803;52.308;19.096;2024-02-14T08:06:57;3.40;99.90
43185;DHT22;28803;52.308;19.096;2024-02-14T08:09:24;3.50;99.90
43185;DHT22;28803;52.308;19.096;2024-02-14T08:11:52;3.50;99.90
43185;DHT22;28803;52.308;19.096;2024-02-14T08:14:20;3.60;99.90
43185;DHT22;28803;52.308;19.096;2024-02-14T08:16:48;4.00;99.90
43185;DHT22;28803;52.308;19.096;2024-02-14T08:19:15;4.80;99.90
43185;DHT22;28803;52.308;19.096;2024-02-14T08:21:43;6.30;99.90
43185;DHT22;28803;52.308;19.096;2024-02-14T08:24:10;8.00;1.00
43185;DHT22;28803;52.308;19.096;2024-02-14T08:26:38;9.30;1.00
43185;DHT22;28803;52.308;19.096;2024-02-14T08:29:05;11.20;1.00
43185;DHT22;28803;52.308;19.096;2024-02-14T08:31:33;12.70;1.00
43185;DHT22;28803;52.308;19.096;2024-02-14T08:34:00;13.60;1.00
43185;DHT22;28803;52.308;19.096;2024-02-14T08:36:28;14.40;1.00
43185;DHT22;28803;52.308;19.096;2024-02-14T08:38:55;14.90;1.00
43185;DHT22;28803;52.308;19.096;2024-02-14T08:41:22;15.50;1.00
43185;DHT22;28803;52.308;19.096;2024-02-14T08:43:50;16.60;1.00
43185;DHT22;28803;52.308;19.096;2024-02-14T08:46:18;17.30;1.00
43185;DHT22;28803;52.308;19.096;2024-02-14T08:48:45;18.00;1.00
43185;DHT22;28803;52.308;19.096;2024-02-14T08:51:16;18.30;1.00
43185;DHT22;28803;52.308;19.096;2024-02-14T08:53:44;18.50;1.00
43185;DHT22;28803;52.308;19.096;2024-02-14T08:56:13;18.10;1.00
43185;DHT22;28803;52.308;19.096;2024-02-14T08:58:41;17.80;1.00
43185;DHT22;28803;52.308;19.096;2024-02-14T09:01:09;17.70;1.00
43185;DHT22;28803;52.308;19.096;2024-02-14T09:03:44;17.30;1.00
43185;DHT22;28803;52.308;19.096;2024-02-14T09:06:17;16.60;1.00
43185;DHT22;28803;52.308;19.096;2024-02-14T09:08:49;16.40;1.00
43185;DHT22;28803;52.308;19.096;2024-02-14T09:11:20;16.30;1.00
43185;DHT22;28803;52.308;19.096;2024-02-14T09:13:49;16.30;1.00
43185;DHT22;28803;52.308;19.096;2024-02-14T09:16:20;16.90;1.00
43185;DHT22;28803;52.308;19.096;2024-02-14T09:18:49;17.70;1.00
43185;DHT22;28803;52.308;19.096;2024-02-14T09:21:17;18.20;1.00
43185;DHT22;28803;52.308;19.096;2024-02-14T09:23:47;19.00;1.00
43185;DHT22;28803;52.308;19.096;2024-02-14T09:26:15;19.70;1.00
43185;DHT22;28803;52.308;19.096;2024-02-14T09:28:45;19.90;1.00
43185;DHT22;28803;52.308;19.096;2024-02-14T09:31:18;19.70;1.00
43185;DHT22;28803;52.308;19.096;2024-02-14T09:33:46;19.10;1.00
43185;DHT22;28803;52.308;19.096;2024-02-14T09:36:15;18.30;1.00
43185;DHT22;28803;52.308;19.096;2024-02-14T09:38:43;17.60;1.00
43185;DHT22;28803;52.308;19.096;2024-02-14T09:41:37;17.40;1.00
43185;DHT22;28803;52.308;19.096;2024-02-14T09:44:08;17.60;1.00
43185;DHT22;28803;52.308;19.096;2024-02-14T09:46:38;17.90;1.00
43185;DHT22;28803;52.308;19.096;2024-02-14T09:49:07;18.50;1.00
43185;DHT22;28803;52.308;19.096;2024-02-14T09:51:37;19.30;1.00
43185;DHT22;28803;52.308;19.096;2024-02-14T09:54:05;20.20;1.00
43185;DHT22;28803;52.308;19.096;2024-02-14T09:56:33;20.40;1.00
43185;DHT22;28803;52.308;19.096;2024-02-14T09:59:01;20.70;1.00
43185;DHT22;28803;52.308;19.096;2024-02-14T10:01:29;20.90;1.00
43185;DHT22;28803;52.308;19.096;2024-02-14T10:03:57;21.00;1.00
43185;DHT22;28803;52.308;19.096;2024-02-14T10:06:24;20.90;1.00
43185;DHT22;28803;52.308;19.096;2024-02-14T10:08:53;21.00;1.00
43185;DHT22;28803;52.308;19.096;2024-02-14T10:11:31;19.90;99.90
43185;DHT22;28803;52.308;19.096;2024-02-14T10:14:00;18.00;1.00
43185;DHT22;28803;52.308;19.096;2024-02-14T10:16:31;15.60;99.90
43185;DHT22;28803;52.308;19.096;2024-02-14T10:18:59;13.40;99.90
43185;DHT22;28803;52.308;19.096;2024-02-14T10:21:28;11.90;99.90
43185;DHT22;28803;52.308;19.096;2024-02-14T10:23:59;10.80;1.00
43185;DHT22;28803;52.308;19.096;2024-02-14T10:26:30;10.10;1.00
43185;DHT22;28803;52.308;19.096;2024-02-14T10:28:59;9.50;1.00
43185;DHT22;28803;52.308;19.096;2024-02-14T10:31:27;9.00;1.00
43185;DHT22;28803;52.308;19.096;2024-02-14T10:33:55;8.70;1.00
43185;DHT22;28803;52.308;19.096;2024-02-14T10:36:24;8.40;99.90
43185;DHT22;28803;52.308;19.096;2024-02-14T10:38:52;8.30;99.90
43185;DHT22;28803;52.308;19.096;2024-02-14T10:41:21;8.20;99.90
43185;DHT22;28803;52.308;19.096;2024-02-14T10:43:48;8.10;99.90
43185;DHT22;28803;52.308;19.096;2024-02-14T10:46:20;8.00;99.90
43185;DHT22;28803;52.308;19.096;2024-02-14T10:48:53;8.00;99.90
43185;DHT22;28803;52.308;19.096;2024-02-14T10:51:21;8.00;99.90
43185;DHT22;28803;52.308;19.096;2024-02-14T10:53:52;8.00;99.90
43185;DHT22;28803;52.308;19.096;2024-02-14T10:56:20;8.00;99.90
43185;DHT22;28803;52.308;19.096;2024-02-14T10:58:48;7.90;99.90
43185;DHT22;28803;52.308;19.096;2024-02-14T11:01:17;7.90;99.90
43185;DHT22;28803;52.308;19.096;2024-02-14T11:03:45;7.90;99.90
43185;DHT22;28803;52.308;19.096;2024-02-14T11:06:16;7.90;99.90
43185;DHT22;28803;52.308;19.096;2024-02-14T11:09:04;7.90;99.90
43185;DHT22;28803;52.308;19.096;2024-02-14T11:11:38;8.00;99.90
43185;DHT22;28803;52.308;19.096;2024-02-14T11:14:06;8.00;99.90
43185;DHT22;28803;52.308;19.096;2024-02-14T11:16:34;7.90;99.90
43185;DHT22;28803;52.308;19.096;2024-02-14T11:19:07;7.90;99.90
43185;DHT22;28803;52.308;19.096;2024-02-14T11:21:43;8.00;99.90
43185;DHT22;28803;52.308;19.096;2024-02-14T11:24:14;7.90;99.90
43185;DHT22;28803;52.308;19.096;2024-02-14T11:26:46;8.00;99.90
43185;DHT22;28803;52.308;19.096;2024-02-14T11:29:15;8.00;99.90
43185;DHT22;28803;52.308;19.096;2024-02-14T11:32:00;8.10;99.90
43185;DHT22;28803;52.308;19.096;2024-02-14T11:34:29;8.00;99.90
43185;DHT22;28803;52.308;19.096;2024-02-14T11:37:05;8.00;99.90
43185;DHT22;28803;52.308;19.096;2024-02-14T11:39:35;8.00;99.90
43185;DHT22;28803;52.308;19.096;2024-02-14T11:42:04;8.00;99.90
43185;DHT22;28803;52.308;19.096;2024-02-14T11:44:32;8.00;99.90
43185;DHT22;28803;52.308;19.096;2024-02-14T11:47:00;8.00;99.90
43185;DHT22;28803;52.308;19.096;2024-02-14T11:49:28;8.10;99.90
43185;DHT22;28803;52.308;19.096;2024-02-14T11:51:56;8.10;99.90
43185;DHT22;28803;52.308;19.096;2024-02-14T11:54:24;8.20;99.90
43185;DHT22;28803;52.308;19.096;2024-02-14T11:56:52;8.20;99.90
43185;DHT22;28803;52.308;19.096;2024-02-14T11:59:20;8.20;99.90
43185;DHT22;28803;52.308;19.096;2024-02-14T12:01:50;8.30;99.90
43185;DHT22;28803;52.308;19.096;2024-02-14T12:04:19;8.30;99.90
43185;DHT22;28803;52.308;19.096;2024-02-14T12:06:47;8.30;99.90
43185;DHT22;28803;52.308;19.096;2024-02-14T12:09:14;8.30;99.90
43185;DHT22;28803;52.308;19.096;2024-02-14T12:11:46;8.30;99.90
43185;DHT22;28803;52.308;19.096;2024-02-14T12:14:14;8.30;99.90
43185;DHT22;28803;52.308;19.096;2024-02-14T12:16:42;8.40;99.90
43185;DHT22;28803;52.308;19.096;2024-02-14T12:19:14;8.40;99.90
43185;DHT22;28803;52.308;19.096;2024-02-14T12:21:44;8.50;99.90
43185;DHT22;28803;52.308;19.096;2024-02-14T12:24:13;8.50;99.90
43185;DHT22;28803;52.308;19.096;2024-02-14T12:26:42;8.60;99.90
43185;DHT22;28803;52.308;19.096;2024-02-14T12:29:13;8.60;99.90
43185;DHT22;28803;52.308;19.096;2024-02-14T12:31:41;8.60;99.90
43185;DHT22;28803;52.308;19.096;2024-02-14T12:34:11;8.60;99.90
43185;DHT22;28803;52.308;19.096;2024-02-14T12:36:41;8.60;99.90
43185;DHT22;28803;52.308;19.096;2024-02-14T12:39:12;8.70;99.90
43185;DHT22;28803;52.308;19.096;2024-02-14T12:41:40;8.90;99.90
43185;DHT22;28803;52.308;19.096;2024-02-14T12:44:08;9.10;99.90
43185;DHT22;28803;52.308;19.096;2024-02-14T12:46:36;9.50;99.90
43185;DHT22;28803;52.308;19.096;2024-02-14T12:49:05;9.70;99.90
43185;DHT22;28803;52.308;19.096;2024-02-14T12:51:33;9.80;99.90
43185;DHT22;28803;52.308;19.096;2024-02-14T12:54:05;9.60;99.90
43185;DHT22;28803;52.308;19.096;2024-02-14T12:56:34;9.40;99.90
43185;DHT22;28803;52.308;19.096;2024-02-14T12:59:02;9.30;99.90
43185;DHT22;28803;52.308;19.096;2024-02-14T13:01:29;9.10;99.90
43185;DHT22;28803;52.308;19.096;2024-02-14T13:03:57;9.00;99.90
43185;DHT22;28803;52.308;19.096;2024-02-14T13:06:30;8.90;99.90
43185;DHT22;28803;52.308;19.096;2024-02-14T13:08:58;8.80;99.90
43185;DHT22;28803;52.308;19.096;2024-02-14T13:11:28;8.80;99.90
43185;DHT22;28803;52.308;19.096;2024-02-14T13:13:55;8.70;99.90
43185;DHT22;28803;52.308;19.096;2024-02-14T13:16:22;8.60;99.90
43185;DHT22;28803;52.308;19.096;2024-02-14T13:18:50;8.60;99.90
43185;DHT22;28803;52.308;19.096;2024-02-14T13:21:17;8.70;99.90
43185;DHT22;28803;52.308;19.096;2024-02-14T13:23:47;8.80;99.90
43185;DHT22;28803;52.308;19.096;2024-02-14T13:26:15;8.90;99.90
43185;DHT22;28803;52.308;19.096;2024-02-14T13:28:42;9.00;99.90
43185;DHT22;28803;52.308;19.096;2024-02-14T13:31:10;9.00;99.90
43185;DHT22;28803;52.308;19.096;2024-02-14T13:33:41;8.90;99.90
43185;DHT22;28803;52.308;19.096;2024-02-14T13:36:09;8.90;99.90
43185;DHT22;28803;52.308;19.096;2024-02-14T13:38:36;8.80;99.90
43185;DHT22;28803;52.308;19.096;2024-02-14T13:41:05;8.90;99.90
43185;DHT22;28803;52.308;19.096;2024-02-14T13:43:32;9.00;99.90
43185;DHT22;28803;52.308;19.096;2024-02-14T13:46:00;9.00;99.90
43185;DHT22;28803;52.308;19.096;2024-02-14T13:48:27;9.10;99.90
43185;DHT22;28803;52.308;19.096;2024-02-14T13:50:56;9.10;99.90
43185;DHT22;28803;52.308;19.096;2024-02-14T13:53:23;9.00;99.90
43185;DHT22;28803;52.308;19.096;2024-02-14T13:55:51;9.00;99.90
43185;DHT22;28803;52.308;19.096;2024-02-14T13:58:19;9.00;99.90
43185;DHT22;28803;52.308;19.096;2024-02-14T14:00:47;8.90;99.90
43185;DHT22;28803;52.308;19.096;2024-02-14T14:03:15;8.90;99.90
43185;DHT22;28803;52.308;19.096;2024-02-14T14:05:44;8.90;99.90
43185;DHT22;28803;52.308;19.096;2024-02-14T14:08:11;8.80;99.90
43185;DHT22;28803;52.308;19.096;2024-02-14T14:10:39;8.80;99.90
43185;DHT22;28803;52.308;19.096;2024-02-14T14:13:07;8.70;99.90
43185;DHT22;28803;52.308;19.096;2024-02-14T14:15:35;8.60;99.90
43185;DHT22;28803;52.308;19.096;2024-02-14T14:18:03;8.50;99.90
43185;DHT22;28803;52.308;19.096;2024-02-14T14:20:31;8.50;99.90
43185;DHT22;28803;52.308;19.096;2024-02-14T14:22:59;8.40;99.90
43185;DHT22;28803;52.308;19.096;2024-02-14T14:25:27;8.40;99.90
43185;DHT22;28803;52.308;19.096;2024-02-14T14:27:55;8.40;99.90
43185;DHT22;28803;52.308;19.096;2024-02-14T14:30:23;8.30;99.90
43185;DHT22;28803;52.308;19.096;2024-02-14T14:32:53;8.30;99.90
43185;DHT22;28803;52.308;19.096;2024-02-14T14:35:21;8.30;99.90
43185;DHT22;28803;52.308;19.096;2024-02-14T14:37:48;8.30;99.90
43185;DHT22;28803;52.308;19.096;2024-02-14T14:40:16;8.20;99.90
43185;DHT22;28803;52.308;19.096;2024-02-14T14:42:43;8.20;99.90
43185;DHT22;28803;52.308;19.096;2024-02-14T14:45:10;8.10;99.90
43185;DHT22;28803;52.308;19.096;2024-02-14T14:47:38;8.10;99.90
43185;DHT22;28803;52.308;19.096;2024-02-14T14:50:05;8.00;99.90
43185;DHT22;28803;52.308;19.096;2024-02-14T14:52:34;8.00;99.90
43185;DHT22;28803;52.308;19.096;2024-02-14T14:55:02;8.00;99.90
43185;DHT22;28803;52.308;19.096;2024-02-14T14:57:29;8.00;99.90
43185;DHT22;28803;52.308;19.096;2024-02-14T14:59:57;7.90;99.90
43185;DHT22;28803;52.308;19.096;2024-02-14T15:02:25;7.90;99.90
43185;DHT22;28803;52.308;19.096;2024-02-14T15:04:53;7.90;99.90
43185;DHT22;28803;52.308;19.096;2024-02-14T15:07:20;7.90;99.90
43185;DHT22;28803;52.308;19.096;2024-02-14T15:09:48;7.80;99.90
43185;DHT22;28803;52.308;19.096;2024-02-14T15:12:15;7.70;99.90
43185;DHT22;28803;52.308;19.096;2024-02-14T15:14:43;7.70;99.90
43185;DHT22;28803;52.308;19.096;2024-02-14T15:17:10;7.60;99.90
43185;DHT22;28803;52.308;19.096;2024-02-14T15:19:37;7.60;93.80
43185;DHT22;28803;52.308;19.096;2024-02-14T15:22:04;7.60;96.00
43185;DHT22;28803;52.308;19.096;2024-02-14T15:24:32;7.50;99.90
43185;DHT22;28803;52.308;19.096;2024-02-14T15:27:01;7.50;99.90
43185;DHT22;28803;52.308;19.096;2024-02-14T15:29:29;7.40;99.90
43185;DHT22;28803;52.308;19.096;2024-02-14T15:32:18;7.40;99.90
43185;DHT22;28803;52.308;19.096;2024-02-14T15:35:05;7.40;99.90
43185;DHT22;28803;52.308;19.096;2024-02-14T15:37:32;7.30;99.90
43185;DHT22;28803;52.308;19.096;2024-02-14T15:39:59;7.20;99.90
43185;DHT22;28803;52.308;19.096;2024-02-14T15:42:27;7.10;44.40